createdAt,value
2023-02-05T00:00:09.477Z,17.2
2023-02-05T00:01:12.234Z,17.2
2023-02-05T00:02:26.018Z,17.2
2023-02-05T00:03:38.981Z,17.18
2023-02-05T00:04:52.491Z,17.18
2023-02-05T00:05:55.257Z,17.18
2023-02-05T00:07:08.993Z,17.17
2023-02-05T00:08:21.801Z,17.2
2023-02-05T00:09:25.479Z,17.17
2023-02-05T00:10:38.214Z,17.18
2023-02-05T00:11:51.981Z,17.15
2023-02-05T00:12:54.751Z,17.14
2023-02-05T00:14:08.510Z,17.14
2023-02-05T00:15:21.239Z,17.17
2023-02-05T00:16:25.040Z,17.15
2023-02-05T00:17:37.921Z,17.15
2023-02-05T00:18:51.480Z,17.14
2023-02-05T00:19:54.261Z,17.17
2023-02-05T00:21:07.967Z,17.14
2023-02-05T00:22:20.711Z,17.17
2023-02-05T00:23:34.462Z,17.15
2023-02-05T00:24:37.227Z,17.15
2023-02-05T00:25:50.980Z,17.14
2023-02-05T00:27:03.709Z,17.14
2023-02-05T00:28:07.533Z,17.11
2023-02-05T00:29:20.346Z,17.12
2023-02-05T00:30:34.111Z,17.12
2023-02-05T00:31:37.059Z,17.11
2023-02-05T00:32:50.466Z,17.11
2023-02-05T00:34:03.145Z,17.1
2023-02-05T00:35:06.502Z,17.11
2023-02-05T00:36:19.211Z,17.1
2023-02-05T00:37:32.972Z,17.08
2023-02-05T00:38:35.823Z,17.11
2023-02-05T00:39:49.515Z,17.1
2023-02-05T00:41:02.230Z,17.1
2023-02-05T00:42:35.513Z,17.08
2023-02-05T00:43:18.353Z,17.1
2023-02-05T00:44:31.078Z,17.1
2023-02-05T00:45:44.459Z,17.11
2023-02-05T00:46:47.210Z,17.11
2023-02-05T00:48:00.970Z,17.11
2023-02-05T00:49:13.689Z,17.08
2023-02-05T00:50:17.503Z,17.11
2023-02-05T00:51:30.205Z,17.1
2023-02-05T00:52:43.468Z,17.11
2023-02-05T00:53:56.176Z,17.08
2023-02-05T00:54:59.473Z,17.07
2023-02-05T00:56:12.178Z,17.08
2023-02-05T00:57:25.972Z,17.08
2023-02-05T00:58:28.715Z,17.11
2023-02-05T00:59:41.978Z,17.1
2023-02-05T01:00:54.674Z,17.1
2023-02-05T01:01:58.515Z,17.08
2023-02-05T01:03:11.337Z,17.07
2023-02-05T01:04:24.994Z,17.07
2023-02-05T01:05:27.741Z,17.05
2023-02-05T01:06:41.482Z,17.04
2023-02-05T01:07:54.199Z,17.04
2023-02-05T01:09:07.467Z,17.07
2023-02-05T01:10:10.199Z,17.04
2023-02-05T01:11:23.490Z,17.04
2023-02-05T01:12:36.219Z,17.05
2023-02-05T01:13:40.061Z,17.04
2023-02-05T01:14:52.756Z,17.05
2023-02-05T01:16:06.542Z,17.05
2023-02-05T01:17:09.483Z,17.03
2023-02-05T01:18:23.018Z,17.03
2023-02-05T01:19:35.786Z,17.04
2023-02-05T01:20:59.505Z,17.01
2023-02-05T01:21:52.304Z,17.04
2023-02-05T01:23:06.014Z,17.03
2023-02-05T01:24:08.752Z,17.04
2023-02-05T01:25:22.518Z,17.05
2023-02-05T01:26:35.220Z,17.03
2023-02-05T01:27:49.077Z,17.05
2023-02-05T01:28:51.952Z,17.04
2023-02-05T01:30:05.518Z,17.04
2023-02-05T01:31:18.385Z,17.04
2023-02-05T01:32:22.052Z,17.04
2023-02-05T01:33:34.754Z,17.04
2023-02-05T01:34:47.992Z,17.0
2023-02-05T01:35:50.763Z,17.03
2023-02-05T01:37:04.540Z,17.01
2023-02-05T01:38:17.257Z,17.03
2023-02-05T01:39:31.022Z,17.03
2023-02-05T01:40:33.890Z,17.03
2023-02-05T01:42:07.514Z,17.01
2023-02-05T01:43:00.331Z,17.03
2023-02-05T01:44:03.080Z,16.98
2023-02-05T01:45:16.498Z,17.03
2023-02-05T01:46:29.246Z,17.04
2023-02-05T01:47:33.012Z,17.01
2023-02-05T01:48:45.753Z,17.0
2023-02-05T01:49:59.519Z,17.03
2023-02-05T01:51:02.268Z,17.03
2023-02-05T01:52:16.070Z,17.01
2023-02-05T01:53:28.807Z,17.0
2023-02-05T01:54:32.526Z,17.0
2023-02-05T01:55:45.299Z,17.0
2023-02-05T01:56:58.983Z,17.01
2023-02-05T01:58:01.733Z,17.0
2023-02-05T01:59:15.025Z,16.97
2023-02-05T02:00:27.727Z,16.98
2023-02-05T02:01:41.523Z,16.98
2023-02-05T02:02:44.275Z,16.98
2023-02-05T02:03:57.992Z,16.98
2023-02-05T02:05:10.778Z,17.0
2023-02-05T02:06:14.486Z,16.97
2023-02-05T02:07:27.195Z,16.97
2023-02-05T02:08:40.523Z,16.98
2023-02-05T02:09:43.291Z,16.96
2023-02-05T02:10:57.018Z,16.97
2023-02-05T02:12:09.752Z,16.94
2023-02-05T02:13:23.524Z,16.94
2023-02-05T02:14:26.422Z,16.94
2023-02-05T02:15:39.992Z,16.94
2023-02-05T02:16:52.712Z,16.97
2023-02-05T02:17:56.528Z,16.96
2023-02-05T02:19:09.251Z,16.96
2023-02-05T02:20:22.986Z,16.91
2023-02-05T02:21:25.773Z,16.97
2023-02-05T02:22:39.513Z,16.96
2023-02-05T02:23:52.291Z,16.96
2023-02-05T02:24:55.998Z,16.96
2023-02-05T02:26:08.716Z,16.96
2023-02-05T02:27:21.984Z,16.94
2023-02-05T02:28:24.761Z,16.94
2023-02-05T02:29:38.516Z,16.94
2023-02-05T02:30:51.063Z,16.94
2023-02-05T02:32:05.038Z,16.94
2023-02-05T02:33:07.708Z,16.93
2023-02-05T02:34:21.504Z,16.93
2023-02-05T02:35:34.526Z,16.94
2023-02-05T02:36:38.490Z,16.94
2023-02-05T02:37:51.193Z,16.94
2023-02-05T02:39:04.515Z,16.94
2023-02-05T02:40:07.314Z,16.93
2023-02-05T02:41:21.000Z,16.93
2023-02-05T02:42:33.732Z,16.93
2023-02-05T02:43:37.484Z,16.93
2023-02-05T02:44:50.211Z,16.91
2023-02-05T02:46:03.520Z,16.91
2023-02-05T02:47:06.296Z,16.88
2023-02-05T02:48:20.030Z,16.9
2023-02-05T02:49:32.753Z,16.91
2023-02-05T02:50:46.511Z,16.91
2023-02-05T02:51:49.309Z,16.9
2023-02-05T02:53:03.038Z,16.88
2023-02-05T02:54:15.758Z,16.9
2023-02-05T02:55:19.528Z,16.88
2023-02-05T02:56:32.277Z,16.9
2023-02-05T02:57:46.034Z,16.91
2023-02-05T02:58:58.789Z,16.9
2023-02-05T03:00:02.499Z,16.91
2023-02-05T03:01:15.194Z,16.9
2023-02-05T03:02:18.523Z,16.91
2023-02-05T03:03:31.280Z,16.93
2023-02-05T03:04:45.534Z,16.9
2023-02-05T03:05:48.296Z,16.91
2023-02-05T03:07:02.022Z,16.91
2023-02-05T03:08:14.742Z,16.91
2023-02-05T03:09:28.058Z,16.91
2023-02-05T03:10:31.019Z,16.91
2023-02-05T03:11:45.548Z,16.9
2023-02-05T03:12:58.456Z,16.91
2023-02-05T03:14:02.032Z,16.93
2023-02-05T03:15:14.756Z,16.88
2023-02-05T03:16:28.146Z,16.9
2023-02-05T03:17:30.990Z,16.9
2023-02-05T03:18:44.524Z,16.88
2023-02-05T03:19:57.245Z,16.91
2023-02-05T03:21:01.179Z,16.88
2023-02-05T03:22:13.910Z,16.9
2023-02-05T03:23:27.549Z,16.87
2023-02-05T03:24:30.312Z,16.88
2023-02-05T03:25:44.024Z,16.9
2023-02-05T03:26:56.752Z,16.88
2023-02-05T03:28:10.589Z,16.91
2023-02-05T03:29:23.453Z,16.9
2023-02-05T03:30:27.077Z,16.9
2023-02-05T03:31:39.876Z,16.9
2023-02-05T03:32:43.522Z,16.9
2023-02-05T03:33:56.250Z,16.91
2023-02-05T03:35:09.530Z,16.9
2023-02-05T03:36:12.354Z,16.9
2023-02-05T03:37:26.039Z,16.91
2023-02-05T03:38:38.906Z,16.88
2023-02-05T03:39:42.526Z,16.9
2023-02-05T03:40:55.250Z,16.91
2023-02-05T03:42:09.099Z,16.9
2023-02-05T03:43:11.873Z,16.88
2023-02-05T03:44:25.513Z,16.88
2023-02-05T03:45:38.269Z,16.9
2023-02-05T03:46:52.050Z,16.88
2023-02-05T03:47:54.815Z,16.87
2023-02-05T03:49:08.545Z,16.9
2023-02-05T03:50:21.276Z,16.87
2023-02-05T03:51:44.516Z,16.88
2023-02-05T03:52:37.328Z,16.88
2023-02-05T03:53:51.053Z,16.88
2023-02-05T03:54:53.812Z,16.88
2023-02-05T03:56:07.549Z,16.91
2023-02-05T03:57:20.360Z,16.9
2023-02-05T03:58:24.048Z,16.88
2023-02-05T03:59:36.786Z,16.91
2023-02-05T04:00:50.577Z,16.88
2023-02-05T04:01:53.420Z,16.88
2023-02-05T04:03:07.023Z,16.9
2023-02-05T04:04:19.810Z,16.91
2023-02-05T04:05:33.789Z,16.88
2023-02-05T04:06:36.762Z,16.88
2023-02-05T04:07:50.549Z,16.9
2023-02-05T04:09:03.284Z,16.88
2023-02-05T04:10:07.024Z,16.88
2023-02-05T04:11:19.750Z,16.87
2023-02-05T04:12:33.546Z,16.9
2023-02-05T04:13:36.327Z,16.9
2023-02-05T04:14:50.018Z,16.87
2023-02-05T04:16:02.837Z,16.88
2023-02-05T04:17:06.550Z,16.88
2023-02-05T04:18:19.371Z,16.87
2023-02-05T04:19:33.063Z,16.87
2023-02-05T04:20:35.871Z,16.85
2023-02-05T04:21:49.548Z,16.87
2023-02-05T04:23:02.284Z,16.88
2023-02-05T04:24:16.090Z,16.87
2023-02-05T04:25:18.967Z,16.88
2023-02-05T04:26:32.574Z,16.87
2023-02-05T04:27:45.358Z,16.85
2023-02-05T04:28:49.054Z,16.87
2023-02-05T04:30:01.810Z,16.85
2023-02-05T04:31:15.642Z,16.85
2023-02-05T04:32:18.532Z,16.85
2023-02-05T04:33:32.038Z,16.88
2023-02-05T04:34:44.811Z,16.85
2023-02-05T04:35:49.082Z,16.85
2023-02-05T04:37:01.897Z,16.85
2023-02-05T04:38:15.541Z,16.87
2023-02-05T04:39:18.318Z,16.85
2023-02-05T04:40:32.047Z,16.87
2023-02-05T04:41:44.776Z,16.84
2023-02-05T04:42:58.571Z,16.87
2023-02-05T04:44:01.333Z,16.84
2023-02-05T04:45:15.064Z,16.87
2023-02-05T04:46:27.843Z,16.85
2023-02-05T04:47:31.573Z,16.9
2023-02-05T04:48:44.333Z,16.88
2023-02-05T04:49:58.034Z,16.85
2023-02-05T04:51:00.790Z,16.87
2023-02-05T04:52:14.571Z,16.87
2023-02-05T04:53:27.310Z,16.85
2023-02-05T04:54:31.050Z,16.87
2023-02-05T04:55:43.812Z,16.87
2023-02-05T04:56:57.534Z,16.85
2023-02-05T04:58:00.333Z,16.84
2023-02-05T04:59:14.078Z,16.85
2023-02-05T05:00:26.838Z,16.84
2023-02-05T05:01:30.637Z,16.85
2023-02-05T05:02:43.553Z,16.87
2023-02-05T05:03:57.058Z,16.87
2023-02-05T05:04:59.809Z,16.85
2023-02-05T05:06:13.554Z,16.87
2023-02-05T05:07:26.351Z,16.85
2023-02-05T05:08:40.088Z,16.9
2023-02-05T05:09:42.901Z,16.87
2023-02-05T05:10:56.607Z,16.88
2023-02-05T05:12:09.377Z,16.87
2023-02-05T05:13:13.097Z,16.88
2023-02-05T05:14:25.930Z,16.88
2023-02-05T05:15:39.562Z,16.87
2023-02-05T05:16:42.495Z,16.87
2023-02-05T05:17:56.059Z,16.9
2023-02-05T05:19:08.830Z,16.88
2023-02-05T05:20:12.565Z,16.88
2023-02-05T05:21:25.329Z,16.88
2023-02-05T05:22:39.056Z,16.87
2023-02-05T05:23:41.848Z,16.87
2023-02-05T05:24:56.068Z,16.88
2023-02-05T05:26:08.859Z,16.9
2023-02-05T05:27:12.573Z,16.9
2023-02-05T05:28:25.394Z,16.9
2023-02-05T05:29:39.053Z,16.9
2023-02-05T05:30:41.888Z,16.88
2023-02-05T05:31:55.636Z,16.88
2023-02-05T05:33:08.435Z,16.9
2023-02-05T05:34:22.070Z,16.9
2023-02-05T05:35:24.860Z,16.9
2023-02-05T05:36:38.585Z,16.9
2023-02-05T05:37:51.355Z,16.9
2023-02-05T05:38:55.083Z,16.9
2023-02-05T05:40:07.846Z,16.91
2023-02-05T05:41:21.594Z,16.91
2023-02-05T05:42:24.402Z,16.9
2023-02-05T05:43:38.187Z,16.9
2023-02-05T05:44:50.956Z,16.88
2023-02-05T05:45:54.559Z,16.91
2023-02-05T05:47:07.330Z,16.9
2023-02-05T05:48:21.109Z,16.88
2023-02-05T05:49:23.897Z,16.9
2023-02-05T05:50:37.591Z,16.91
2023-02-05T05:51:50.351Z,16.88
2023-02-05T05:52:54.081Z,16.9
2023-02-05T05:54:06.849Z,16.9
2023-02-05T05:55:20.611Z,16.87
2023-02-05T05:56:23.426Z,16.9
2023-02-05T05:57:37.083Z,16.9
2023-02-05T05:58:49.857Z,16.88
2023-02-05T06:00:03.571Z,16.9
2023-02-05T06:01:06.383Z,16.85
2023-02-05T06:02:20.243Z,16.91
2023-02-05T06:03:33.078Z,16.87
2023-02-05T06:04:36.661Z,16.88
2023-02-05T06:05:49.495Z,16.88
2023-02-05T06:07:03.103Z,16.9
2023-02-05T06:08:05.900Z,16.91
2023-02-05T06:09:19.608Z,16.91
2023-02-05T06:10:32.363Z,16.88
2023-02-05T06:11:36.106Z,16.88
2023-02-05T06:12:48.847Z,16.91
2023-02-05T06:14:02.630Z,16.88
2023-02-05T06:15:05.447Z,16.9
2023-02-05T06:16:19.653Z,16.88
2023-02-05T06:17:32.597Z,16.88
2023-02-05T06:18:36.118Z,16.88
2023-02-05T06:19:48.892Z,16.91
2023-02-05T06:21:02.583Z,16.88
2023-02-05T06:22:05.436Z,16.91
2023-02-05T06:23:19.108Z,16.88
2023-02-05T06:24:31.944Z,16.9
2023-02-05T06:25:45.594Z,16.91
2023-02-05T06:26:48.395Z,16.91
2023-02-05T06:28:02.123Z,16.9
2023-02-05T06:29:14.873Z,16.9
2023-02-05T06:30:18.586Z,16.91
2023-02-05T06:31:31.534Z,16.9
2023-02-05T06:32:45.580Z,16.9
2023-02-05T06:33:48.372Z,16.88
2023-02-05T06:35:02.089Z,16.91
2023-02-05T06:36:14.857Z,16.9
2023-02-05T06:37:18.606Z,16.88
2023-02-05T06:38:31.371Z,16.9
2023-02-05T06:39:45.098Z,16.9
2023-02-05T06:40:47.920Z,16.88
2023-02-05T06:42:01.606Z,16.9
2023-02-05T06:43:14.359Z,16.91
2023-02-05T06:44:28.580Z,16.9
2023-02-05T06:45:31.413Z,16.9
2023-02-05T06:46:45.146Z,16.91
2023-02-05T06:47:47.996Z,16.88
2023-02-05T06:49:02.101Z,16.9
2023-02-05T06:50:14.814Z,16.9
2023-02-05T06:51:28.608Z,16.88
2023-02-05T06:52:31.383Z,16.88
2023-02-05T06:53:45.104Z,16.9
2023-02-05T06:54:57.864Z,16.9
2023-02-05T06:56:01.617Z,16.88
2023-02-05T06:57:14.391Z,16.91
2023-02-05T06:58:28.124Z,16.9
2023-02-05T06:59:30.900Z,16.9
2023-02-05T07:00:44.605Z,16.9
2023-02-05T07:01:57.397Z,16.9
2023-02-05T07:03:02.199Z,16.91
2023-02-05T07:04:15.093Z,16.91
2023-02-05T07:05:28.689Z,16.91
2023-02-05T07:06:31.484Z,16.91
2023-02-05T07:07:45.132Z,16.91
2023-02-05T07:08:57.868Z,16.91
2023-02-05T07:10:02.115Z,16.9
2023-02-05T07:11:14.873Z,16.9
2023-02-05T07:12:28.583Z,16.93
2023-02-05T07:13:31.386Z,16.93
2023-02-05T07:14:45.127Z,16.91
2023-02-05T07:15:57.911Z,16.9
2023-02-05T07:17:01.617Z,16.91
2023-02-05T07:18:14.358Z,16.9
2023-02-05T07:19:28.149Z,16.91
2023-02-05T07:20:31.039Z,16.93
2023-02-05T07:21:44.648Z,16.91
2023-02-05T07:22:57.394Z,16.91
2023-02-05T07:24:11.141Z,16.93
2023-02-05T07:25:13.971Z,16.91
2023-02-05T07:26:27.657Z,16.9
2023-02-05T07:27:40.390Z,16.91
2023-02-05T07:28:44.129Z,16.94
2023-02-05T07:29:56.879Z,16.93
2023-02-05T07:31:20.743Z,16.93
2023-02-05T07:32:13.659Z,16.93
2023-02-05T07:33:27.611Z,16.94
2023-02-05T07:34:40.360Z,16.9
2023-02-05T07:35:44.156Z,16.94
2023-02-05T07:36:56.910Z,16.91
2023-02-05T07:38:30.644Z,16.96
2023-02-05T07:39:13.514Z,16.94
2023-02-05T07:40:26.234Z,16.96
2023-02-05T07:41:39.605Z,16.96
2023-02-05T07:42:42.412Z,16.98
2023-02-05T07:43:56.119Z,16.97
2023-02-05T07:45:08.891Z,16.96
2023-02-05T07:46:12.706Z,16.98
2023-02-05T07:47:25.499Z,17.0
2023-02-05T07:48:39.604Z,16.98
2023-02-05T07:49:42.336Z,17.0
2023-02-05T07:50:56.229Z,16.97
2023-02-05T07:52:08.970Z,16.98
2023-02-05T07:53:12.638Z,16.98
2023-02-05T07:54:25.337Z,17.0
2023-02-05T07:55:39.124Z,17.0
2023-02-05T07:56:41.918Z,17.0
2023-02-05T07:57:55.663Z,17.01
2023-02-05T07:59:08.378Z,17.11
2023-02-05T08:00:21.619Z,17.2
2023-02-05T08:01:24.323Z,17.31
2023-02-05T08:02:37.636Z,17.43
2023-02-05T08:03:50.279Z,17.54
2023-02-05T08:04:53.636Z,17.65
2023-02-05T08:06:06.243Z,17.76
2023-02-05T08:07:19.644Z,17.87
2023-02-05T08:08:22.259Z,17.94
2023-02-05T08:09:36.144Z,18.03
2023-02-05T08:10:48.662Z,18.14
2023-02-05T08:12:02.113Z,18.2
2023-02-05T08:13:04.666Z,18.27
2023-02-05T08:14:27.616Z,18.36
2023-02-05T08:15:30.157Z,18.44
2023-02-05T08:16:33.735Z,18.45
2023-02-05T08:17:46.300Z,18.51
2023-02-05T08:19:19.613Z,18.58
2023-02-05T08:20:02.310Z,18.62
2023-02-05T08:21:14.764Z,18.68
2023-02-05T08:22:28.163Z,18.71
2023-02-05T08:23:40.596Z,18.77
2023-02-05T08:24:44.177Z,18.81
2023-02-05T08:25:56.624Z,18.81
2023-02-05T08:27:09.643Z,18.84
2023-02-05T08:28:12.322Z,18.84
2023-02-05T08:29:25.609Z,18.88
2023-02-05T08:30:38.073Z,18.88
2023-02-05T08:31:51.183Z,18.91
2023-02-05T08:32:53.730Z,18.91
2023-02-05T08:34:18.286Z,18.89
2023-02-05T08:35:18.621Z,18.92
2023-02-05T08:36:31.043Z,18.92
2023-02-05T08:38:14.035Z,18.94
2023-02-05T08:38:47.891Z,18.95
2023-02-05T08:40:00.271Z,18.96
2023-02-05T08:41:03.635Z,18.96
2023-02-05T08:42:16.067Z,18.96
2023-02-05T08:43:29.548Z,18.95
2023-02-05T08:44:32.083Z,18.96
2023-02-05T08:45:45.729Z,18.96
2023-02-05T08:46:58.242Z,18.94
2023-02-05T08:48:11.532Z,18.91
2023-02-05T08:49:14.050Z,18.89
2023-02-05T08:50:37.037Z,18.88
2023-02-05T08:52:29.225Z,18.84
2023-02-05T08:52:43.045Z,18.82
2023-02-05T08:54:05.420Z,18.81
2023-02-05T08:55:08.531Z,18.81
2023-02-05T08:56:20.922Z,18.82
2023-02-05T08:57:34.011Z,18.85
2023-02-05T08:58:36.536Z,18.82
2023-02-05T08:59:49.530Z,18.87
2023-02-05T09:00:52.073Z,18.85
2023-02-05T09:02:05.546Z,18.85
2023-02-05T09:03:17.957Z,18.88
2023-02-05T09:04:31.068Z,18.88
2023-02-05T09:05:34.101Z,18.87
2023-02-05T09:06:47.561Z,18.88
2023-02-05T09:07:59.942Z,18.88
2023-02-05T09:09:03.032Z,18.87
2023-02-05T09:10:15.350Z,18.87
2023-02-05T09:11:28.534Z,18.84
2023-02-05T09:12:40.943Z,18.88
2023-02-05T09:13:44.020Z,18.85
2023-02-05T09:14:56.467Z,18.85
2023-02-05T09:16:09.548Z,18.88
2023-02-05T09:17:12.065Z,18.87
2023-02-05T09:18:25.588Z,18.88
2023-02-05T09:19:38.021Z,18.87
2023-02-05T09:20:51.066Z,18.87
2023-02-05T09:21:54.288Z,18.89
2023-02-05T09:23:07.565Z,18.89
2023-02-05T09:24:20.040Z,18.92
2023-02-05T09:25:23.571Z,18.94
2023-02-05T09:26:36.006Z,18.92
2023-02-05T09:27:49.562Z,18.91
2023-02-05T09:28:52.179Z,18.91
2023-02-05T09:30:05.514Z,18.92
2023-02-05T09:31:18.039Z,18.94
2023-02-05T09:32:31.567Z,18.95
2023-02-05T09:33:34.091Z,18.95
2023-02-05T09:34:47.527Z,18.94
2023-02-05T09:35:59.972Z,18.94
2023-02-05T09:37:03.605Z,18.95
2023-02-05T09:38:16.043Z,18.96
2023-02-05T09:40:05.588Z,18.96
2023-02-05T09:40:40.530Z,18.99
2023-02-05T09:41:43.271Z,19.01
2023-02-05T09:42:56.607Z,19.04
2023-02-05T09:44:09.190Z,19.06
2023-02-05T09:45:22.547Z,19.09
2023-02-05T09:46:25.178Z,19.08
2023-02-05T09:47:38.536Z,19.11
2023-02-05T09:48:50.942Z,19.13
2023-02-05T09:49:54.051Z,19.13
2023-02-05T09:51:06.465Z,19.13
2023-02-05T09:52:20.082Z,19.15
2023-02-05T09:53:22.579Z,19.17
2023-02-05T09:54:35.528Z,19.17
2023-02-05T09:55:47.921Z,19.2
2023-02-05T09:57:01.081Z,19.23
2023-02-05T09:58:03.557Z,19.23
2023-02-05T09:59:16.535Z,19.23
2023-02-05T10:00:29.263Z,19.27
2023-02-05T10:01:42.592Z,19.27
2023-02-05T10:02:45.187Z,19.3
2023-02-05T10:03:59.082Z,19.29
2023-02-05T10:05:11.570Z,19.32
2023-02-05T10:06:15.054Z,19.32
2023-02-05T10:07:27.447Z,19.35
2023-02-05T10:08:40.541Z,19.35
2023-02-05T10:09:43.005Z,19.39
2023-02-05T10:10:57.036Z,19.38
2023-02-05T10:12:09.418Z,19.39
2023-02-05T10:13:23.200Z,19.4
2023-02-05T10:14:25.682Z,19.4
2023-02-05T10:15:39.091Z,19.45
2023-02-05T10:16:51.500Z,19.43
2023-02-05T10:17:54.551Z,19.45
2023-02-05T10:19:06.889Z,19.45
2023-02-05T10:20:20.053Z,19.47
2023-02-05T10:21:22.499Z,19.52
2023-02-05T10:22:35.548Z,19.5
2023-02-05T10:23:47.958Z,19.5
2023-02-05T10:25:01.038Z,19.53
2023-02-05T10:26:03.491Z,19.55
2023-02-05T10:27:16.566Z,19.53
2023-02-05T10:28:28.928Z,19.56
2023-02-05T10:29:42.057Z,19.53
2023-02-05T10:30:44.635Z,19.52
2023-02-05T10:31:58.072Z,19.55
2023-02-05T10:33:10.630Z,19.55
2023-02-05T10:34:14.059Z,19.53
2023-02-05T10:35:26.495Z,19.53
2023-02-05T10:36:39.570Z,19.55
2023-02-05T10:37:42.051Z,19.55
2023-02-05T10:38:55.082Z,19.55
2023-02-05T10:40:07.468Z,19.53
2023-02-05T10:41:20.562Z,19.56
2023-02-05T10:42:23.037Z,19.53
2023-02-05T10:43:36.050Z,19.53
2023-02-05T10:44:48.512Z,19.57
2023-02-05T10:46:01.621Z,19.56
2023-02-05T10:47:04.136Z,19.57
2023-02-05T10:48:17.547Z,19.6
2023-02-05T10:49:29.908Z,19.57
2023-02-05T10:50:43.315Z,19.57
2023-02-05T10:51:45.775Z,19.6
2023-02-05T10:52:59.103Z,19.62
2023-02-05T10:54:01.618Z,19.59
2023-02-05T10:55:14.534Z,19.62
2023-02-05T10:56:26.900Z,19.6
2023-02-05T10:57:40.052Z,19.62
2023-02-05T10:58:42.566Z,19.64
2023-02-05T10:59:55.607Z,19.64
2023-02-05T11:01:07.980Z,19.63
2023-02-05T11:02:21.105Z,19.64
2023-02-05T11:03:23.588Z,19.63
2023-02-05T11:04:46.575Z,19.66
2023-02-05T11:05:49.041Z,19.67
2023-02-05T11:07:02.089Z,19.66
2023-02-05T11:08:34.340Z,19.67
2023-02-05T11:09:18.073Z,19.67
2023-02-05T11:10:30.419Z,19.68
2023-02-05T11:11:33.586Z,19.71
2023-02-05T11:12:45.922Z,19.7
2023-02-05T11:13:59.231Z,19.71
2023-02-05T11:15:41.557Z,19.74
2023-02-05T11:16:25.092Z,19.73
2023-02-05T11:17:27.593Z,19.71
2023-02-05T11:18:40.584Z,19.74
2023-02-05T11:19:42.850Z,19.76
2023-02-05T11:20:56.079Z,19.76
2023-02-05T11:22:08.467Z,19.77
2023-02-05T11:23:21.568Z,19.73
2023-02-05T11:24:24.016Z,19.74
2023-02-05T11:25:37.090Z,19.73
2023-02-05T11:26:49.479Z,19.73
2023-02-05T11:28:03.116Z,19.68
2023-02-05T11:29:05.718Z,19.7
2023-02-05T11:30:24.681Z,19.7
2023-02-05T11:31:25.277Z,19.67
2023-02-05T11:32:38.606Z,19.68
2023-02-05T11:33:51.058Z,19.66
2023-02-05T11:34:54.073Z,19.64
2023-02-05T11:36:06.429Z,19.64
2023-02-05T11:37:19.586Z,19.62
2023-02-05T11:38:31.996Z,19.62
2023-02-05T11:39:35.071Z,19.6
2023-02-05T11:40:47.447Z,19.62
2023-02-05T11:42:00.577Z,19.62
2023-02-05T11:43:03.216Z,19.62
2023-02-05T11:44:16.605Z,19.62
2023-02-05T11:45:28.933Z,19.62
2023-02-05T11:46:42.644Z,19.62
2023-02-05T11:47:45.217Z,19.63
2023-02-05T11:48:58.613Z,19.63
2023-02-05T11:50:11.050Z,19.64
2023-02-05T11:51:14.615Z,19.64
2023-02-05T11:52:46.770Z,19.64
2023-02-05T11:53:40.084Z,19.64
2023-02-05T11:54:52.417Z,19.66
2023-02-05T11:55:55.613Z,19.68
2023-02-05T11:57:07.964Z,19.67
2023-02-05T11:58:28.330Z,19.67
2023-02-05T11:59:27.741Z,19.68
2023-02-05T12:00:41.155Z,19.67
2023-02-05T12:01:43.716Z,19.7
2023-02-05T12:02:57.122Z,19.67
2023-02-05T12:04:09.480Z,19.67
2023-02-05T12:05:22.615Z,19.66
2023-02-05T12:06:25.054Z,19.64
2023-02-05T12:07:38.602Z,19.62
2023-02-05T12:08:50.958Z,19.63
2023-02-05T12:10:04.084Z,19.59
2023-02-05T12:11:06.590Z,19.57
2023-02-05T12:12:19.611Z,19.56
2023-02-05T12:13:32.097Z,19.56
2023-02-05T12:14:35.620Z,19.52
2023-02-05T12:15:48.003Z,19.55
2023-02-05T12:17:01.113Z,19.55
2023-02-05T12:18:03.724Z,19.53
2023-02-05T12:19:17.207Z,19.53
2023-02-05T12:20:29.740Z,19.52
2023-02-05T12:21:43.103Z,19.5
2023-02-05T12:22:45.554Z,19.5
2023-02-05T12:23:58.617Z,19.5
2023-02-05T12:25:10.950Z,19.5
2023-02-05T12:26:14.160Z,19.5
2023-02-05T12:27:26.502Z,19.53
2023-02-05T12:28:39.698Z,19.55
2023-02-05T12:29:53.599Z,19.56
2023-02-05T12:30:56.620Z,19.56
2023-02-05T12:32:09.079Z,19.57
2023-02-05T12:33:22.109Z,19.59
2023-02-05T12:34:24.712Z,19.57
2023-02-05T12:35:38.097Z,19.57
2023-02-05T12:36:50.474Z,19.59
2023-02-05T12:37:54.625Z,19.57
2023-02-05T12:39:06.995Z,19.57
2023-02-05T12:40:23.574Z,19.6
2023-02-05T12:41:27.856Z,19.6
2023-02-05T12:42:41.125Z,19.57
2023-02-05T12:43:43.566Z,19.6
2023-02-05T12:44:56.602Z,19.59
2023-02-05T12:46:09.068Z,19.56
2023-02-05T12:47:22.130Z,19.59
2023-02-05T12:48:24.599Z,19.56
2023-02-05T12:49:38.432Z,19.56
2023-02-05T12:50:51.730Z,19.57
2023-02-05T12:51:55.107Z,19.57
2023-02-05T12:53:07.492Z,19.56
2023-02-05T12:54:20.621Z,19.55
2023-02-05T12:55:23.347Z,19.53
2023-02-05T12:56:36.642Z,19.55
2023-02-05T12:57:49.016Z,19.5
2023-02-05T12:59:02.148Z,19.52
2023-02-05T13:00:04.660Z,19.52
2023-02-05T13:01:18.194Z,19.5
2023-02-05T13:02:30.706Z,19.47
2023-02-05T13:03:34.119Z,19.47
2023-02-05T13:04:46.511Z,19.49
2023-02-05T13:05:59.597Z,19.49
2023-02-05T13:07:02.265Z,19.49
2023-02-05T13:08:15.639Z,19.47
2023-02-05T13:09:28.035Z,19.46
2023-02-05T13:10:41.130Z,19.46
2023-02-05T13:11:43.618Z,19.45
2023-02-05T13:12:56.606Z,19.46
2023-02-05T13:14:08.993Z,19.45
2023-02-05T13:15:22.100Z,19.46
2023-02-05T13:16:24.624Z,19.46
2023-02-05T13:17:38.135Z,19.49
2023-02-05T13:18:50.519Z,19.49
2023-02-05T13:19:53.651Z,19.47
2023-02-05T13:21:06.042Z,19.52
2023-02-05T13:22:19.142Z,19.5
2023-02-05T13:23:21.796Z,19.5
2023-02-05T13:24:35.147Z,19.52
2023-02-05T13:25:47.538Z,19.49
2023-02-05T13:27:00.621Z,19.53
2023-02-05T13:28:03.152Z,19.5
2023-02-05T13:29:16.614Z,19.52
2023-02-05T13:30:29.076Z,19.53
2023-02-05T13:31:42.659Z,19.56
2023-02-05T13:32:45.162Z,19.56
2023-02-05T13:33:58.110Z,19.6
2023-02-05T13:35:10.489Z,19.6
2023-02-05T13:36:13.642Z,19.63
2023-02-05T13:37:26.019Z,19.62
2023-02-05T13:38:39.150Z,19.6
2023-02-05T13:39:41.597Z,19.62
2023-02-05T13:40:54.621Z,19.63
2023-02-05T13:42:06.999Z,19.6
2023-02-05T13:43:20.632Z,19.62
2023-02-05T13:44:23.107Z,19.6
2023-02-05T13:47:02.617Z,19.6
2023-02-05T13:47:55.181Z,19.62
2023-02-05T13:49:08.253Z,19.59
2023-02-05T13:50:20.619Z,19.64
2023-02-05T13:51:23.735Z,19.63
2023-02-05T13:52:36.098Z,19.66
2023-02-05T13:53:49.251Z,19.67
2023-02-05T13:54:51.712Z,19.67
2023-02-05T13:56:04.758Z,19.71
2023-02-05T13:57:18.088Z,19.74
2023-02-05T13:58:31.229Z,19.8
2023-02-05T13:59:33.660Z,19.8
2023-02-05T14:00:46.870Z,19.87
2023-02-05T14:01:59.340Z,19.91
2023-02-05T14:03:12.762Z,19.93
2023-02-05T14:04:15.229Z,19.94
2023-02-05T14:05:28.253Z,19.97
2023-02-05T14:06:40.609Z,19.97
2023-02-05T14:07:43.735Z,19.98
2023-02-05T14:08:56.073Z,20.0
2023-02-05T14:10:09.260Z,19.98
2023-02-05T14:11:21.621Z,20.01
2023-02-05T14:12:24.754Z,20.0
2023-02-05T14:13:37.115Z,20.01
2023-02-05T14:14:50.265Z,20.0
2023-02-05T14:15:52.806Z,20.01
2023-02-05T14:17:06.239Z,19.96
2023-02-05T14:18:18.593Z,19.96
2023-02-05T14:19:31.757Z,19.97
2023-02-05T14:20:34.225Z,19.94
2023-02-05T14:21:47.232Z,19.98
2023-02-05T14:22:59.601Z,19.94
2023-02-05T14:24:12.772Z,19.91
2023-02-05T14:25:15.233Z,19.9
2023-02-05T14:26:28.239Z,19.91
2023-02-05T14:27:40.590Z,19.88
2023-02-05T14:28:43.766Z,19.9
2023-02-05T14:29:56.169Z,19.88
2023-02-05T14:31:09.314Z,19.86
2023-02-05T14:32:21.859Z,19.83
2023-02-05T14:33:25.249Z,19.86
2023-02-05T14:34:37.595Z,19.84
2023-02-05T14:35:50.762Z,19.83
2023-02-05T14:36:53.211Z,19.81
2023-02-05T14:38:06.273Z,19.84
2023-02-05T14:39:18.639Z,19.83
2023-02-05T14:40:31.770Z,19.81
2023-02-05T14:41:34.097Z,19.78
2023-02-05T14:42:47.260Z,19.8
2023-02-05T14:43:59.462Z,19.8
2023-02-05T14:45:12.261Z,19.8
2023-02-05T14:46:14.538Z,19.8
2023-02-05T14:47:27.770Z,19.83
2023-02-05T14:48:40.095Z,19.86
2023-02-05T14:49:43.272Z,19.87
2023-02-05T14:50:55.592Z,19.86
2023-02-05T14:52:08.757Z,19.9
2023-02-05T14:53:21.112Z,20.0
2023-02-05T14:54:24.285Z,19.97
2023-02-05T14:55:36.879Z,19.96
2023-02-05T14:56:50.251Z,20.0
2023-02-05T14:57:52.703Z,20.03
2023-02-05T14:59:05.768Z,19.97
2023-02-05T15:00:18.116Z,20.04
2023-02-05T15:01:31.350Z,20.0
2023-02-05T15:02:33.933Z,19.98
2023-02-05T15:03:47.271Z,20.0
2023-02-05T15:04:59.639Z,19.96
2023-02-05T15:06:02.754Z,19.94
2023-02-05T15:07:15.133Z,19.94
2023-02-05T15:08:28.285Z,19.91